sensor_id;sensor_type;location;lat;lon;timestamp;P1;durP1;ratioP1;P2;durP2;ratioP2
10246;SDS011;5168;47.854;7.944;2023-02-21T00:01:14;2.07;;;1.73;;
10246;SDS011;5168;47.854;7.944;2023-02-21T00:03:59;3.43;;;1.70;;
10246;SDS011;5168;47.854;7.944;2023-02-21T00:06:44;3.67;;;1.70;;
10246;SDS011;5168;47.854;7.944;2023-02-21T00:09:28;1.83;;;1.60;;
10246;SDS011;5168;47.854;7.944;2023-02-21T00:12:12;2.00;;;1.60;;
10246;SDS011;5168;47.854;7.944;2023-02-21T00:14:57;3.53;;;1.60;;
10246;SDS011;5168;47.854;7.944;2023-02-21T00:17:41;1.50;;;1.40;;
10246;SDS011;5168;47.854;7.944;2023-02-21T00:20:26;2.50;;;1.50;;
10246;SDS011;5168;47.854;7.944;2023-02-21T00:23:10;1.60;;;1.50;;
10246;SDS011;5168;47.854;7.944;2023-02-21T00:25:54;2.37;;;1.70;;
10246;SDS011;5168;47.854;7.944;2023-02-21T00:28:38;1.60;;;1.50;;
10246;SDS011;5168;47.854;7.944;2023-02-21T00:31:22;1.63;;;1.53;;
10246;SDS011;5168;47.854;7.944;2023-02-21T00:34:06;2.40;;;1.60;;
10246;SDS011;5168;47.854;7.944;2023-02-21T00:36:51;2.17;;;1.40;;
10246;SDS011;5168;47.854;7.944;2023-02-21T00:39:36;2.27;;;1.50;;
10246;SDS011;5168;47.854;7.944;2023-02-21T00:42:20;1.60;;;1.50;;
10246;SDS011;5168;47.854;7.944;2023-02-21T00:45:05;1.63;;;1.47;;
10246;SDS011;5168;47.854;7.944;2023-02-21T00:47:49;3.10;;;1.60;;
10246;SDS011;5168;47.854;7.944;2023-02-21T00:50:33;2.17;;;1.43;;
10246;SDS011;5168;47.854;7.944;2023-02-21T00:53:18;4.80;;;1.50;;
10246;SDS011;5168;47.854;7.944;2023-02-21T00:56:03;1.60;;;1.50;;
10246;SDS011;5168;47.854;7.944;2023-02-21T00:58:47;2.33;;;1.67;;
10246;SDS011;5168;47.854;7.944;2023-02-21T01:01:31;4.10;;;1.70;;
10246;SDS011;5168;47.854;7.944;2023-02-21T01:04:15;1.60;;;1.50;;
10246;SDS011;5168;47.854;7.944;2023-02-21T01:07:00;1.63;;;1.53;;
10246;SDS011;5168;47.854;7.944;2023-02-21T01:09:44;1.70;;;1.60;;
10246;SDS011;5168;47.854;7.944;2023-02-21T01:12:28;1.77;;;1.67;;
10246;SDS011;5168;47.854;7.944;2023-02-21T01:15:13;1.97;;;1.50;;
10246;SDS011;5168;47.854;7.944;2023-02-21T01:17:57;1.60;;;1.50;;
10246;SDS011;5168;47.854;7.944;2023-02-21T01:20:41;1.70;;;1.60;;
10246;SDS011;5168;47.854;7.944;2023-02-21T01:23:25;1.60;;;1.50;;
10246;SDS011;5168;47.854;7.944;2023-02-21T01:26:09;1.73;;;1.60;;
10246;SDS011;5168;47.854;7.944;2023-02-21T01:28:53;1.90;;;1.70;;
10246;SDS011;5168;47.854;7.944;2023-02-21T01:31:37;3.53;;;1.50;;
10246;SDS011;5168;47.854;7.944;2023-02-21T01:34:22;1.70;;;1.60;;
10246;SDS011;5168;47.854;7.944;2023-02-21T01:37:06;1.73;;;1.63;;
10246;SDS011;5168;47.854;7.944;2023-02-21T01:39:50;1.50;;;1.40;;
10246;SDS011;5168;47.854;7.944;2023-02-21T01:42:34;1.50;;;1.40;;
10246;SDS011;5168;47.854;7.944;2023-02-21T01:48:06;2.40;;;1.60;;
10246;SDS011;5168;47.854;7.944;2023-02-21T01:50:55;2.10;;;1.50;;
10246;SDS011;5168;47.854;7.944;2023-02-21T01:53:42;2.37;;;1.47;;
10246;SDS011;5168;47.854;7.944;2023-02-21T01:56:28;1.60;;;1.47;;
10246;SDS011;5168;47.854;7.944;2023-02-21T01:59:13;3.83;;;1.60;;
10246;SDS011;5168;47.854;7.944;2023-02-21T02:02:00;2.10;;;1.50;;
10246;SDS011;5168;47.854;7.944;2023-02-21T02:04:48;2.17;;;1.47;;
10246;SDS011;5168;47.854;7.944;2023-02-21T02:07:34;2.67;;;1.73;;
10246;SDS011;5168;47.854;7.944;2023-02-21T02:10:19;1.63;;;1.37;;
10246;SDS011;5168;47.854;7.944;2023-02-21T02:13:12;2.77;;;1.70;;
10246;SDS011;5168;47.854;7.944;2023-02-21T02:16:01;1.67;;;1.57;;
10246;SDS011;5168;47.854;7.944;2023-02-21T02:21:49;1.70;;;1.60;;
10246;SDS011;5168;47.854;7.944;2023-02-21T02:32:48;2.90;;;1.70;;
10246;SDS011;5168;47.854;7.944;2023-02-21T02:35:34;1.57;;;1.47;;
10246;SDS011;5168;47.854;7.944;2023-02-21T02:38:52;4.70;;;1.60;;
10246;SDS011;5168;47.854;7.944;2023-02-21T02:41:13;1.70;;;1.60;;
10246;SDS011;5168;47.854;7.944;2023-02-21T02:44:18;1.73;;;1.63;;
10246;SDS011;5168;47.854;7.944;2023-02-21T02:46:46;1.60;;;1.50;;
10246;SDS011;5168;47.854;7.944;2023-02-21T02:49:32;1.50;;;1.40;;
10246;SDS011;5168;47.854;7.944;2023-02-21T02:52:06;1.50;;;1.40;;
10246;SDS011;5168;47.854;7.944;2023-02-21T02:54:32;1.80;;;1.53;;
10246;SDS011;5168;47.854;7.944;2023-02-21T02:56:59;1.50;;;1.40;;
10246;SDS011;5168;47.854;7.944;2023-02-21T02:59:34;1.50;;;1.40;;
10246;SDS011;5168;47.854;7.944;2023-02-21T03:07:58;2.53;;;1.60;;
10246;SDS011;5168;47.854;7.944;2023-02-21T03:15:47;2.03;;;1.67;;
10246;SDS011;5168;47.854;7.944;2023-02-21T03:18:30;1.50;;;1.40;;
10246;SDS011;5168;47.854;7.944;2023-02-21T03:21:00;1.53;;;1.43;;
10246;SDS011;5168;47.854;7.944;2023-02-21T03:23:31;1.57;;;1.47;;
10246;SDS011;5168;47.854;7.944;2023-02-21T03:26:00;2.13;;;1.50;;
10246;SDS011;5168;47.854;7.944;2023-02-21T03:28:28;1.43;;;1.33;;
10246;SDS011;5168;47.854;7.944;2023-02-21T03:30:55;1.60;;;1.50;;
10246;SDS011;5168;47.854;7.944;2023-02-21T03:33:23;1.43;;;1.30;;
10246;SDS011;5168;47.854;7.944;2023-02-21T03:35:49;1.50;;;1.40;;
10246;SDS011;5168;47.854;7.944;2023-02-21T03:38:15;3.77;;;1.60;;
10246;SDS011;5168;47.854;7.944;2023-02-21T03:40:40;1.60;;;1.50;;
10246;SDS011;5168;47.854;7.944;2023-02-21T03:43:06;1.63;;;1.53;;
10246;SDS011;5168;47.854;7.944;2023-02-21T03:45:33;1.70;;;1.60;;
10246;SDS011;5168;47.854;7.944;2023-02-21T03:47:59;2.90;;;1.70;;
10246;SDS011;5168;47.854;7.944;2023-02-21T03:50:25;1.47;;;1.37;;
10246;SDS011;5168;47.854;7.944;2023-02-21T03:52:51;1.60;;;1.50;;
10246;SDS011;5168;47.854;7.944;2023-02-21T03:55:18;1.73;;;1.63;;
10246;SDS011;5168;47.854;7.944;2023-02-21T03:57:44;1.80;;;1.63;;
10246;SDS011;5168;47.854;7.944;2023-02-21T04:00:11;1.70;;;1.60;;
10246;SDS011;5168;47.854;7.944;2023-02-21T04:02:37;3.73;;;1.50;;
10246;SDS011;5168;47.854;7.944;2023-02-21T04:05:04;1.57;;;1.47;;
10246;SDS011;5168;47.854;7.944;2023-02-21T04:07:30;2.13;;;1.40;;
10246;SDS011;5168;47.854;7.944;2023-02-21T04:09:56;1.60;;;1.50;;
10246;SDS011;5168;47.854;7.944;2023-02-21T04:12:21;6.10;;;1.70;;
10246;SDS011;5168;47.854;7.944;2023-02-21T04:14:47;1.63;;;1.53;;
10246;SDS011;5168;47.854;7.944;2023-02-21T04:17:13;1.57;;;1.47;;
10246;SDS011;5168;47.854;7.944;2023-02-21T04:19:40;1.70;;;1.57;;
10246;SDS011;5168;47.854;7.944;2023-02-21T04:22:05;1.60;;;1.50;;
10246;SDS011;5168;47.854;7.944;2023-02-21T04:24:31;1.63;;;1.53;;
10246;SDS011;5168;47.854;7.944;2023-02-21T04:26:57;1.57;;;1.47;;
10246;SDS011;5168;47.854;7.944;2023-02-21T04:29:23;2.63;;;1.53;;
10246;SDS011;5168;47.854;7.944;2023-02-21T04:31:51;1.70;;;1.60;;
10246;SDS011;5168;47.854;7.944;2023-02-21T04:34:17;1.87;;;1.73;;
10246;SDS011;5168;47.854;7.944;2023-02-21T04:36:43;1.67;;;1.57;;
10246;SDS011;5168;47.854;7.944;2023-02-21T04:39:09;1.47;;;1.37;;
10246;SDS011;5168;47.854;7.944;2023-02-21T04:41:35;1.50;;;1.40;;
10246;SDS011;5168;47.854;7.944;2023-02-21T04:44:01;1.70;;;1.60;;
10246;SDS011;5168;47.854;7.944;2023-02-21T04:46:26;1.40;;;1.30;;
10246;SDS011;5168;47.854;7.944;2023-02-21T04:48:52;1.70;;;1.60;;
10246;SDS011;5168;47.854;7.944;2023-02-21T04:51:19;2.20;;;1.53;;
10246;SDS011;5168;47.854;7.944;2023-02-21T04:53:47;1.40;;;1.30;;
10246;SDS011;5168;47.854;7.944;2023-02-21T04:56:14;1.50;;;1.40;;
10246;SDS011;5168;47.854;7.944;2023-02-21T04:58:42;1.60;;;1.50;;
10246;SDS011;5168;47.854;7.944;2023-02-21T05:01:09;1.40;;;1.30;;
10246;SDS011;5168;47.854;7.944;2023-02-21T05:03:36;1.50;;;1.40;;
10246;SDS011;5168;47.854;7.944;2023-02-21T05:06:02;4.30;;;1.60;;
10246;SDS011;5168;47.854;7.944;2023-02-21T05:08:28;2.40;;;1.40;;
10246;SDS011;5168;47.854;7.944;2023-02-21T05:10:53;1.50;;;1.40;;
10246;SDS011;5168;47.854;7.944;2023-02-21T05:13:19;1.43;;;1.33;;
10246;SDS011;5168;47.854;7.944;2023-02-21T05:15:45;1.43;;;1.33;;
10246;SDS011;5168;47.854;7.944;2023-02-21T05:18:11;1.50;;;1.40;;
10246;SDS011;5168;47.854;7.944;2023-02-21T05:20:36;1.70;;;1.60;;
10246;SDS011;5168;47.854;7.944;2023-02-21T05:23:02;1.70;;;1.60;;
10246;SDS011;5168;47.854;7.944;2023-02-21T05:25:27;1.60;;;1.50;;
10246;SDS011;5168;47.854;7.944;2023-02-21T05:27:53;1.50;;;1.40;;
10246;SDS011;5168;47.854;7.944;2023-02-21T05:30:20;1.60;;;1.50;;
10246;SDS011;5168;47.854;7.944;2023-02-21T05:32:47;1.50;;;1.40;;
10246;SDS011;5168;47.854;7.944;2023-02-21T05:35:14;1.70;;;1.60;;
10246;SDS011;5168;47.854;7.944;2023-02-21T05:37:40;1.50;;;1.40;;
10246;SDS011;5168;47.854;7.944;2023-02-21T05:40:06;1.50;;;1.40;;
10246;SDS011;5168;47.854;7.944;2023-02-21T05:42:32;1.50;;;1.40;;
10246;SDS011;5168;47.854;7.944;2023-02-21T05:44:58;1.37;;;1.27;;
10246;SDS011;5168;47.854;7.944;2023-02-21T05:47:24;1.40;;;1.30;;
10246;SDS011;5168;47.854;7.944;2023-02-21T05:49:50;2.20;;;1.40;;
10246;SDS011;5168;47.854;7.944;2023-02-21T05:52:16;1.60;;;1.50;;
10246;SDS011;5168;47.854;7.944;2023-02-21T05:54:42;1.50;;;1.40;;
10246;SDS011;5168;47.854;7.944;2023-02-21T05:57:08;1.47;;;1.37;;
10246;SDS011;5168;47.854;7.944;2023-02-21T05:59:33;1.60;;;1.50;;
10246;SDS011;5168;47.854;7.944;2023-02-21T06:01:59;1.60;;;1.50;;
10246;SDS011;5168;47.854;7.944;2023-02-21T06:04:25;1.47;;;1.37;;
10246;SDS011;5168;47.854;7.944;2023-02-21T06:06:51;1.50;;;1.40;;
10246;SDS011;5168;47.854;7.944;2023-02-21T06:09:17;1.60;;;1.50;;
10246;SDS011;5168;47.854;7.944;2023-02-21T06:11:43;1.50;;;1.40;;
10246;SDS011;5168;47.854;7.944;2023-02-21T06:14:13;2.27;;;1.30;;
10246;SDS011;5168;47.854;7.944;2023-02-21T06:16:43;1.70;;;1.60;;
10246;SDS011;5168;47.854;7.944;2023-02-21T06:19:09;1.60;;;1.50;;
10246;SDS011;5168;47.854;7.944;2023-02-21T06:21:37;1.70;;;1.60;;
10246;SDS011;5168;47.854;7.944;2023-02-21T06:24:04;1.60;;;1.50;;
10246;SDS011;5168;47.854;7.944;2023-02-21T06:26:33;1.73;;;1.60;;
10246;SDS011;5168;47.854;7.944;2023-02-21T06:28:58;2.07;;;1.50;;
10246;SDS011;5168;47.854;7.944;2023-02-21T06:31:24;1.50;;;1.40;;
10246;SDS011;5168;47.854;7.944;2023-02-21T06:33:50;1.73;;;1.40;;
10246;SDS011;5168;47.854;7.944;2023-02-21T06:36:18;1.60;;;1.50;;
10246;SDS011;5168;47.854;7.944;2023-02-21T06:38:46;1.50;;;1.40;;
10246;SDS011;5168;47.854;7.944;2023-02-21T06:41:16;1.40;;;1.30;;
10246;SDS011;5168;47.854;7.944;2023-02-21T06:43:48;1.70;;;1.60;;
10246;SDS011;5168;47.854;7.944;2023-02-21T06:46:16;1.70;;;1.60;;
10246;SDS011;5168;47.854;7.944;2023-02-21T06:48:42;1.77;;;1.63;;
10246;SDS011;5168;47.854;7.944;2023-02-21T06:51:08;1.67;;;1.57;;
10246;SDS011;5168;47.854;7.944;2023-02-21T06:53:35;1.60;;;1.50;;
10246;SDS011;5168;47.854;7.944;2023-02-21T06:56:01;2.00;;;1.47;;
10246;SDS011;5168;47.854;7.944;2023-02-21T06:58:27;1.80;;;1.60;;
10246;SDS011;5168;47.854;7.944;2023-02-21T07:00:53;1.97;;;1.57;;
10246;SDS011;5168;47.854;7.944;2023-02-21T07:03:18;2.77;;;1.60;;
10246;SDS011;5168;47.854;7.944;2023-02-21T07:05:45;2.23;;;1.60;;
10246;SDS011;5168;47.854;7.944;2023-02-21T07:08:10;6.47;;;1.77;;
10246;SDS011;5168;47.854;7.944;2023-02-21T07:10:36;2.30;;;2.10;;
10246;SDS011;5168;47.854;7.944;2023-02-21T07:13:01;2.60;;;2.40;;
10246;SDS011;5168;47.854;7.944;2023-02-21T07:15:27;2.47;;;2.20;;
10246;SDS011;5168;47.854;7.944;2023-02-21T07:17:53;4.70;;;1.90;;
10246;SDS011;5168;47.854;7.944;2023-02-21T07:20:19;1.90;;;1.80;;
10246;SDS011;5168;47.854;7.944;2023-02-21T07:22:45;2.80;;;1.80;;
10246;SDS011;5168;47.854;7.944;2023-02-21T07:25:14;1.73;;;1.63;;
10246;SDS011;5168;47.854;7.944;2023-02-21T07:27:41;1.70;;;1.60;;
10246;SDS011;5168;47.854;7.944;2023-02-21T07:30:07;1.77;;;1.60;;
10246;SDS011;5168;47.854;7.944;2023-02-21T07:32:33;1.70;;;1.60;;
10246;SDS011;5168;47.854;7.944;2023-02-21T07:34:59;1.90;;;1.80;;
10246;SDS011;5168;47.854;7.944;2023-02-21T07:37:25;1.80;;;1.70;;
10246;SDS011;5168;47.854;7.944;2023-02-21T07:39:51;1.80;;;1.70;;
10246;SDS011;5168;47.854;7.944;2023-02-21T07:42:17;1.50;;;1.40;;
10246;SDS011;5168;47.854;7.944;2023-02-21T07:44:43;2.00;;;1.80;;
10246;SDS011;5168;47.854;7.944;2023-02-21T07:47:08;2.00;;;1.80;;
10246;SDS011;5168;47.854;7.944;2023-02-21T07:49:37;2.03;;;1.87;;
10246;SDS011;5168;47.854;7.944;2023-02-21T07:52:03;2.70;;;2.50;;
10246;SDS011;5168;47.854;7.944;2023-02-21T07:54:29;2.63;;;2.43;;
10246;SDS011;5168;47.854;7.944;2023-02-21T07:56:55;3.07;;;2.77;;
10246;SDS011;5168;47.854;7.944;2023-02-21T07:59:24;3.10;;;2.80;;
10246;SDS011;5168;47.854;7.944;2023-02-21T08:01:49;2.93;;;2.47;;
10246;SDS011;5168;47.854;7.944;2023-02-21T08:04:18;2.80;;;2.50;;
10246;SDS011;5168;47.854;7.944;2023-02-21T08:06:45;2.57;;;2.17;;
10246;SDS011;5168;47.854;7.944;2023-02-21T08:09:11;2.27;;;2.00;;
10246;SDS011;5168;47.854;7.944;2023-02-21T08:11:37;2.13;;;1.93;;
10246;SDS011;5168;47.854;7.944;2023-02-21T08:14:04;2.47;;;1.60;;
10246;SDS011;5168;47.854;7.944;2023-02-21T08:16:29;1.43;;;1.33;;
10246;SDS011;5168;47.854;7.944;2023-02-21T08:18:56;1.50;;;1.40;;
10246;SDS011;5168;47.854;7.944;2023-02-21T08:21:22;1.50;;;1.40;;
10246;SDS011;5168;47.854;7.944;2023-02-21T08:23:50;1.40;;;1.30;;
10246;SDS011;5168;47.854;7.944;2023-02-21T08:26:17;1.30;;;1.20;;
10246;SDS011;5168;47.854;7.944;2023-02-21T08:28:42;1.43;;;1.33;;
10246;SDS011;5168;47.854;7.944;2023-02-21T08:31:08;2.20;;;1.20;;
10246;SDS011;5168;47.854;7.944;2023-02-21T08:33:34;1.40;;;1.30;;
10246;SDS011;5168;47.854;7.944;2023-02-21T08:35:59;1.40;;;1.30;;
10246;SDS011;5168;47.854;7.944;2023-02-21T08:38:25;1.40;;;1.30;;
10246;SDS011;5168;47.854;7.944;2023-02-21T08:40:51;1.30;;;1.20;;
10246;SDS011;5168;47.854;7.944;2023-02-21T08:43:17;1.63;;;1.27;;
10246;SDS011;5168;47.854;7.944;2023-02-21T08:45:43;1.40;;;1.30;;
10246;SDS011;5168;47.854;7.944;2023-02-21T08:48:09;1.60;;;1.50;;
10246;SDS011;5168;47.854;7.944;2023-02-21T08:50:36;1.53;;;1.43;;
10246;SDS011;5168;47.854;7.944;2023-02-21T08:53:02;1.70;;;1.27;;
10246;SDS011;5168;47.854;7.944;2023-02-21T08:55:28;1.40;;;1.30;;
10246;SDS011;5168;47.854;7.944;2023-02-21T08:57:53;1.53;;;1.40;;
10246;SDS011;5168;47.854;7.944;2023-02-21T09:00:21;1.30;;;1.20;;
10246;SDS011;5168;47.854;7.944;2023-02-21T09:02:48;2.33;;;1.40;;
10246;SDS011;5168;47.854;7.944;2023-02-21T09:05:16;1.20;;;1.10;;
10246;SDS011;5168;47.854;7.944;2023-02-21T09:07:46;1.50;;;1.40;;
10246;SDS011;5168;47.854;7.944;2023-02-21T09:10:12;1.40;;;1.30;;
10246;SDS011;5168;47.854;7.944;2023-02-21T09:12:38;2.90;;;2.60;;
10246;SDS011;5168;47.854;7.944;2023-02-21T09:15:05;3.23;;;2.93;;
10246;SDS011;5168;47.854;7.944;2023-02-21T09:17:31;2.40;;;2.20;;
10246;SDS011;5168;47.854;7.944;2023-02-21T09:19:59;4.20;;;2.87;;
10246;SDS011;5168;47.854;7.944;2023-02-21T09:22:25;2.30;;;2.00;;
10246;SDS011;5168;47.854;7.944;2023-02-21T09:24:51;1.77;;;1.60;;
10246;SDS011;5168;47.854;7.944;2023-02-21T09:27:17;4.63;;;2.80;;
10246;SDS011;5168;47.854;7.944;2023-02-21T09:29:44;1.93;;;1.70;;
10246;SDS011;5168;47.854;7.944;2023-02-21T09:32:11;2.90;;;1.30;;
10246;SDS011;5168;47.854;7.944;2023-02-21T09:34:37;1.63;;;1.10;;
10246;SDS011;5168;47.854;7.944;2023-02-21T09:37:05;2.87;;;2.60;;
10246;SDS011;5168;47.854;7.944;2023-02-21T09:39:32;2.90;;;2.10;;
10246;SDS011;5168;47.854;7.944;2023-02-21T09:42:01;2.17;;;1.60;;
10246;SDS011;5168;47.854;7.944;2023-02-21T09:44:27;3.53;;;1.43;;
10246;SDS011;5168;47.854;7.944;2023-02-21T09:47:04;1.60;;;1.23;;
10246;SDS011;5168;47.854;7.944;2023-02-21T09:49:34;2.53;;;1.57;;
10246;SDS011;5168;47.854;7.944;2023-02-21T09:52:03;2.10;;;1.10;;
10246;SDS011;5168;47.854;7.944;2023-02-21T09:57:05;1.23;;;1.13;;
10246;SDS011;5168;47.854;7.944;2023-02-21T09:59:35;1.40;;;1.30;;
10246;SDS011;5168;47.854;7.944;2023-02-21T10:07:13;2.40;;;1.70;;
10246;SDS011;5168;47.854;7.944;2023-02-21T10:10:03;2.60;;;1.83;;
10246;SDS011;5168;47.854;7.944;2023-02-21T10:12:44;1.37;;;1.20;;
10246;SDS011;5168;47.854;7.944;2023-02-21T10:15:38;2.23;;;1.27;;
10246;SDS011;5168;47.854;7.944;2023-02-21T10:18:24;1.60;;;1.10;;
10246;SDS011;5168;47.854;7.944;2023-02-21T10:21:00;1.73;;;1.30;;
10246;SDS011;5168;47.854;7.944;2023-02-21T10:23:39;1.30;;;1.20;;
10246;SDS011;5168;47.854;7.944;2023-02-21T10:26:09;2.07;;;1.70;;
10246;SDS011;5168;47.854;7.944;2023-02-21T10:28:36;1.43;;;1.33;;
10246;SDS011;5168;47.854;7.944;2023-02-21T10:31:36;2.50;;;1.20;;
10246;SDS011;5168;47.854;7.944;2023-02-21T10:34:05;1.60;;;1.30;;
10246;SDS011;5168;47.854;7.944;2023-02-21T10:36:50;1.50;;;1.20;;
10246;SDS011;5168;47.854;7.944;2023-02-21T10:39:18;1.47;;;1.20;;
10246;SDS011;5168;47.854;7.944;2023-02-21T10:41:48;1.00;;;0.90;;
10246;SDS011;5168;47.854;7.944;2023-02-21T10:44:20;2.70;;;1.10;;
10246;SDS011;5168;47.854;7.944;2023-02-21T10:46:53;1.20;;;1.10;;
10246;SDS011;5168;47.854;7.944;2023-02-21T10:49:39;2.17;;;1.20;;
10246;SDS011;5168;47.854;7.944;2023-02-21T10:52:13;1.13;;;1.03;;
10246;SDS011;5168;47.854;7.944;2023-02-21T10:55:01;1.93;;;1.30;;
10246;SDS011;5168;47.854;7.944;2023-02-21T10:57:38;3.47;;;1.17;;
10246;SDS011;5168;47.854;7.944;2023-02-21T11:00:07;2.03;;;1.20;;
10246;SDS011;5168;47.854;7.944;2023-02-21T11:02:37;1.67;;;1.00;;
10246;SDS011;5168;47.854;7.944;2023-02-21T11:05:09;2.17;;;1.47;;
10246;SDS011;5168;47.854;7.944;2023-02-21T11:07:54;1.50;;;1.30;;
10246;SDS011;5168;47.854;7.944;2023-02-21T11:10:27;1.43;;;1.10;;
10246;SDS011;5168;47.854;7.944;2023-02-21T11:13:17;3.13;;;1.03;;
10246;SDS011;5168;47.854;7.944;2023-02-21T11:15:45;2.03;;;1.30;;
10246;SDS011;5168;47.854;7.944;2023-02-21T11:20:41;6.00;;;1.43;;
10246;SDS011;5168;47.854;7.944;2023-02-21T11:23:24;1.30;;;1.20;;
10246;SDS011;5168;47.854;7.944;2023-02-21T11:26:06;2.10;;;1.20;;
10246;SDS011;5168;47.854;7.944;2023-02-21T11:28:36;2.17;;;1.35;;
10246;SDS011;5168;47.854;7.944;2023-02-21T11:31:17;2.75;;;1.67;;
10246;SDS011;5168;47.854;7.944;2023-02-21T11:34:00;1.85;;;1.20;;
10246;SDS011;5168;47.854;7.944;2023-02-21T11:36:32;1.00;;;0.90;;
10246;SDS011;5168;47.854;7.944;2023-02-21T11:41:44;1.13;;;1.02;;
10246;SDS011;5168;47.854;7.944;2023-02-21T11:46:59;1.83;;;0.95;;
10246;SDS011;5168;47.854;7.944;2023-02-21T11:49:32;1.15;;;1.00;;
10246;SDS011;5168;47.854;7.944;2023-02-21T11:52:21;2.60;;;1.00;;
10246;SDS011;5168;47.854;7.944;2023-02-21T11:54:50;1.55;;;1.15;;
10246;SDS011;5168;47.854;7.944;2023-02-21T12:05:26;2.00;;;1.40;;
10246;SDS011;5168;47.854;7.944;2023-02-21T12:08:01;3.55;;;1.38;;
10246;SDS011;5168;47.854;7.944;2023-02-21T12:10:43;1.83;;;1.20;;
10246;SDS011;5168;47.854;7.944;2023-02-21T12:15:59;1.10;;;0.90;;
10246;SDS011;5168;47.854;7.944;2023-02-21T12:26:56;1.20;;;1.10;;
10246;SDS011;5168;47.854;7.944;2023-02-21T12:32:14;1.92;;;1.17;;
10246;SDS011;5168;47.854;7.944;2023-02-21T12:35:05;1.00;;;0.80;;
10246;SDS011;5168;47.854;7.944;2023-02-21T12:38:01;3.10;;;0.82;;
10246;SDS011;5168;47.854;7.944;2023-02-21T12:41:23;1.20;;;1.10;;
10246;SDS011;5168;47.854;7.944;2023-02-21T12:43:26;3.45;;;0.90;;
10246;SDS011;5168;47.854;7.944;2023-02-21T12:46:27;1.35;;;0.90;;
10246;SDS011;5168;47.854;7.944;2023-02-21T12:51:47;1.98;;;1.08;;
10246;SDS011;5168;47.854;7.944;2023-02-21T12:54:42;1.15;;;0.95;;
10246;SDS011;5168;47.854;7.944;2023-02-21T12:57:13;1.67;;;1.33;;
10246;SDS011;5168;47.854;7.944;2023-02-21T13:00:17;1.02;;;0.90;;
10246;SDS011;5168;47.854;7.944;2023-02-21T13:02:52;2.08;;;1.42;;
10246;SDS011;5168;47.854;7.944;2023-02-21T13:05:52;3.53;;;2.42;;
10246;SDS011;5168;47.854;7.944;2023-02-21T13:08:43;1.77;;;1.42;;
10246;SDS011;5168;47.854;7.944;2023-02-21T13:11:42;1.70;;;1.13;;
10246;SDS011;5168;47.854;7.944;2023-02-21T13:14:22;1.00;;;0.90;;
10246;SDS011;5168;47.854;7.944;2023-02-21T13:16:56;2.17;;;1.00;;
10246;SDS011;5168;47.854;7.944;2023-02-21T13:19:22;4.70;;;1.50;;
10246;SDS011;5168;47.854;7.944;2023-02-21T13:30:20;1.17;;;1.00;;
10246;SDS011;5168;47.854;7.944;2023-02-21T13:32:52;2.60;;;1.10;;
10246;SDS011;5168;47.854;7.944;2023-02-21T13:35:27;1.73;;;1.10;;
10246;SDS011;5168;47.854;7.944;2023-02-21T13:37:58;1.60;;;1.10;;
10246;SDS011;5168;47.854;7.944;2023-02-21T13:40:30;1.50;;;1.30;;
10246;SDS011;5168;47.854;7.944;2023-02-21T13:42:58;1.42;;;1.20;;
10246;SDS011;5168;47.854;7.944;2023-02-21T13:45:27;2.22;;;1.00;;
10246;SDS011;5168;47.854;7.944;2023-02-21T13:53:15;2.72;;;1.30;;
10246;SDS011;5168;47.854;7.944;2023-02-21T13:58:32;2.83;;;1.30;;
10246;SDS011;5168;47.854;7.944;2023-02-21T14:03:47;3.08;;;1.70;;
10246;SDS011;5168;47.854;7.944;2023-02-21T14:08:56;2.08;;;1.42;;
10246;SDS011;5168;47.854;7.944;2023-02-21T14:11:26;2.42;;;1.30;;
10246;SDS011;5168;47.854;7.944;2023-02-21T14:13:58;3.03;;;1.30;;
10246;SDS011;5168;47.854;7.944;2023-02-21T14:16:46;1.20;;;1.10;;
10246;SDS011;5168;47.854;7.944;2023-02-21T14:19:21;3.90;;;1.20;;
10246;SDS011;5168;47.854;7.944;2023-02-21T14:21:54;1.52;;;1.38;;
10246;SDS011;5168;47.854;7.944;2023-02-21T14:24:27;1.42;;;1.33;;
10246;SDS011;5168;47.854;7.944;2023-02-21T14:27:00;1.80;;;1.50;;
10246;SDS011;5168;47.854;7.944;2023-02-21T14:39:53;4.37;;;1.60;;
10246;SDS011;5168;47.854;7.944;2023-02-21T14:45:06;3.27;;;1.70;;
10246;SDS011;5168;47.854;7.944;2023-02-21T14:56:09;2.80;;;1.40;;
10246;SDS011;5168;47.854;7.944;2023-02-21T15:01:39;1.40;;;1.30;;
10246;SDS011;5168;47.854;7.944;2023-02-21T15:06:59;1.60;;;1.37;;
10246;SDS011;5168;47.854;7.944;2023-02-21T15:09:45;1.57;;;1.47;;
10246;SDS011;5168;47.854;7.944;2023-02-21T15:12:52;1.60;;;1.43;;
10246;SDS011;5168;47.854;7.944;2023-02-21T15:18:03;1.67;;;1.37;;
10246;SDS011;5168;47.854;7.944;2023-02-21T15:20:34;2.00;;;1.63;;
10246;SDS011;5168;47.854;7.944;2023-02-21T15:25:33;2.63;;;1.63;;
10246;SDS011;5168;47.854;7.944;2023-02-21T15:28:00;3.30;;;1.70;;
10246;SDS011;5168;47.854;7.944;2023-02-21T15:30:30;2.37;;;1.87;;
10246;SDS011;5168;47.854;7.944;2023-02-21T15:33:05;2.07;;;1.80;;
10246;SDS011;5168;47.854;7.944;2023-02-21T15:35:32;3.07;;;1.93;;
10246;SDS011;5168;47.854;7.944;2023-02-21T15:38:01;1.87;;;1.70;;
10246;SDS011;5168;47.854;7.944;2023-02-21T15:40:29;1.80;;;1.60;;
10246;SDS011;5168;47.854;7.944;2023-02-21T15:42:56;1.80;;;1.67;;
10246;SDS011;5168;47.854;7.944;2023-02-21T15:47:55;3.00;;;1.70;;
10246;SDS011;5168;47.854;7.944;2023-02-21T15:50:28;2.60;;;1.87;;
10246;SDS011;5168;47.854;7.944;2023-02-21T15:55:43;2.73;;;1.70;;
10246;SDS011;5168;47.854;7.944;2023-02-21T15:58:23;1.93;;;1.73;;
10246;SDS011;5168;47.854;7.944;2023-02-21T16:01:04;2.03;;;1.53;;
10246;SDS011;5168;47.854;7.944;2023-02-21T16:08:52;1.73;;;1.60;;
10246;SDS011;5168;47.854;7.944;2023-02-21T16:11:47;2.53;;;1.70;;
10246;SDS011;5168;47.854;7.944;2023-02-21T16:14:34;1.93;;;1.60;;
10246;SDS011;5168;47.854;7.944;2023-02-21T16:17:15;1.73;;;1.63;;
10246;SDS011;5168;47.854;7.944;2023-02-21T16:19:50;2.10;;;1.80;;
10246;SDS011;5168;47.854;7.944;2023-02-21T16:22:23;2.60;;;1.73;;
10246;SDS011;5168;47.854;7.944;2023-02-21T16:25:10;1.90;;;1.70;;
10246;SDS011;5168;47.854;7.944;2023-02-21T16:27:37;1.73;;;1.63;;
10246;SDS011;5168;47.854;7.944;2023-02-21T16:30:05;1.60;;;1.50;;
10246;SDS011;5168;47.854;7.944;2023-02-21T16:32:31;1.70;;;1.60;;
10246;SDS011;5168;47.854;7.944;2023-02-21T16:34:59;1.67;;;1.57;;
10246;SDS011;5168;47.854;7.944;2023-02-21T16:37:25;1.50;;;1.40;;
10246;SDS011;5168;47.854;7.944;2023-02-21T16:39:52;1.50;;;1.40;;
10246;SDS011;5168;47.854;7.944;2023-02-21T16:42:17;2.07;;;1.50;;
10246;SDS011;5168;47.854;7.944;2023-02-21T16:44:43;1.47;;;1.37;;
10246;SDS011;5168;47.854;7.944;2023-02-21T16:47:13;1.90;;;1.70;;
10246;SDS011;5168;47.854;7.944;2023-02-21T16:49:40;2.13;;;1.50;;
10246;SDS011;5168;47.854;7.944;2023-02-21T16:52:10;2.47;;;1.83;;
10246;SDS011;5168;47.854;7.944;2023-02-21T16:54:38;2.17;;;2.00;;
10246;SDS011;5168;47.854;7.944;2023-02-21T16:57:04;1.90;;;1.80;;
10246;SDS011;5168;47.854;7.944;2023-02-21T16:59:30;2.07;;;1.97;;
10246;SDS011;5168;47.854;7.944;2023-02-21T17:01:56;1.93;;;1.83;;
10246;SDS011;5168;47.854;7.944;2023-02-21T17:04:22;2.03;;;1.50;;
10246;SDS011;5168;47.854;7.944;2023-02-21T17:06:52;2.10;;;1.80;;
10246;SDS011;5168;47.854;7.944;2023-02-21T17:09:23;1.73;;;1.63;;
10246;SDS011;5168;47.854;7.944;2023-02-21T17:11:51;1.80;;;1.63;;
10246;SDS011;5168;47.854;7.944;2023-02-21T17:14:17;4.37;;;2.07;;
10246;SDS011;5168;47.854;7.944;2023-02-21T17:16:43;2.10;;;1.90;;
10246;SDS011;5168;47.854;7.944;2023-02-21T17:19:13;2.07;;;1.87;;
10246;SDS011;5168;47.854;7.944;2023-02-21T17:21:40;1.73;;;1.63;;
10246;SDS011;5168;47.854;7.944;2023-02-21T17:24:05;1.60;;;1.50;;
10246;SDS011;5168;47.854;7.944;2023-02-21T17:26:31;1.60;;;1.50;;
10246;SDS011;5168;47.854;7.944;2023-02-21T17:28:57;1.53;;;1.43;;
10246;SDS011;5168;47.854;7.944;2023-02-21T17:31:23;2.40;;;1.50;;
10246;SDS011;5168;47.854;7.944;2023-02-21T17:33:49;1.57;;;1.47;;
10246;SDS011;5168;47.854;7.944;2023-02-21T17:36:19;1.50;;;1.40;;
10246;SDS011;5168;47.854;7.944;2023-02-21T17:38:47;1.40;;;1.30;;
10246;SDS011;5168;47.854;7.944;2023-02-21T17:41:13;1.40;;;1.30;;
10246;SDS011;5168;47.854;7.944;2023-02-21T17:43:39;1.60;;;1.50;;